Time;durP1;ratioP1;P1;durP2;ratioP2;P2;SDS_P1;SDS_P2;PMS_P1;PMS_P2;Temp;Humidity;BMP_temperature;BMP_pressure;BME280_temperature;BME280_humidity;BME280_pressure;Samples;Min_cycle;Max_cycle;Signal;HPM_P1;HPM_P2
2023/01/13 00:00:25;;;;;;;;;;;11.70;99.50;;;10.55;86.95;99414.94;6150187;23;19920;-80
2023/01/13 00:02:52;;;;;;;;;;;11.70;99.60;;;10.56;87.16;99416.56;6149932;23;19927;-80
2023/01/13 00:05:27;;;;;;;;;;;11.70;99.70;;;10.58;86.83;99419.78;6150161;23;19943;-80
2023/01/13 00:07:54;;;;;;;;;;;11.70;99.70;;;10.57;86.83;99429.66;6149842;23;19943;-80
2023/01/13 00:10:21;;;;;;;;;;;11.80;99.60;;;10.56;86.74;99425.38;6150344;23;19920;-80
2023/01/13 00:12:48;;;;;;;;;;;11.70;99.50;;;10.57;86.72;99426.16;6150877;23;19940;-80
2023/01/13 00:15:15;;;;;;;;;;;11.70;99.50;;;10.58;86.34;99422.44;6150335;23;20336;-78
2023/01/13 00:17:43;;;;;;;;;;;11.70;99.30;;;10.59;86.32;99410.75;6149662;23;19926;-78
2023/01/13 00:20:12;;;;;;;;;;;11.70;99.30;;;10.58;86.23;99396.59;6150405;23;19951;-78
2023/01/13 00:22:39;;;;;;;;;;;11.70;99.30;;;10.61;85.84;99402.53;6150018;23;19920;-78
2023/01/13 00:25:07;;;;;;;;;;;11.70;99.00;;;10.60;85.78;99408.91;6150649;23;19920;-78
2023/01/13 00:27:34;;;;;;;;;;;11.80;98.90;;;10.57;85.28;99405.66;6148618;23;19916;-78
2023/01/13 00:30:01;;;;;;;;;;;11.80;98.50;;;10.57;84.78;99413.66;6150330;23;19920;-78
2023/01/13 00:32:28;;;;;;;;;;;11.70;98.10;;;10.58;84.79;99411.78;6150373;23;19917;-78
2023/01/13 00:34:57;;;;;;;;;;;11.70;98.30;;;10.56;84.49;99404.03;6149308;23;19920;-78
2023/01/13 00:37:24;;;;;;;;;;;11.70;98.00;;;10.59;84.37;99405.44;6150405;23;19920;-78
2023/01/13 00:39:52;;;;;;;;;;;11.80;98.00;;;10.58;83.96;99406.47;6150366;23;19927;-78
2023/01/13 00:45:04;;;;;;;;;;;11.70;97.60;;;10.56;83.86;99422.69;6150813;23;19923;-78
2023/01/13 00:47:31;;;;;;;;;;;11.80;97.50;;;10.55;83.83;99423.75;6149937;23;19920;-78
2023/01/13 00:49:59;;;;;;;;;;;11.70;97.70;;;10.56;83.69;99425.38;6150632;23;19920;-78
2023/01/13 00:52:27;;;;;;;;;;;11.80;97.50;;;10.50;83.14;99415.66;6150351;23;20007;-78
2023/01/13 00:54:53;;;;;;;;;;;11.70;96.90;;;10.51;83.34;99413.78;6150221;23;20315;-78
2023/01/13 00:57:20;;;;;;;;;;;11.70;97.10;;;10.50;83.19;99410.31;6150607;23;20407;-78
2023/01/13 00:59:48;;;;;;;;;;;11.70;97.00;;;10.48;83.09;99409.72;6149553;23;19925;-78
2023/01/13 01:02:14;;;;;;;;;;;11.90;97.00;;;10.49;82.67;99416.72;6149808;23;19952;-78
2023/01/13 01:04:41;;;;;;;;;;;11.70;96.60;;;10.48;82.41;99411.59;6149923;23;20247;-78
2023/01/13 01:07:10;;;;;;;;;;;11.70;96.40;;;10.47;82.64;99412.66;6150493;23;19924;-78
2023/01/13 01:09:38;;;;;;;;;;;11.60;96.50;;;10.46;81.87;99400.38;6150265;23;19931;-78
2023/01/13 01:12:05;;;;;;;;;;;11.60;95.80;;;10.43;81.72;99403.50;6152368;23;19994;-78
2023/01/13 01:14:32;;;;;;;;;;;11.60;95.90;;;10.44;81.29;99410.44;6152028;23;19921;-78
2023/01/13 01:16:59;;;;;;;;;;;11.60;95.70;;;10.45;81.08;99410.22;6151886;23;19916;-78
2023/01/13 01:19:26;;;;;;;;;;;11.60;95.60;;;10.44;81.18;99415.78;6151776;23;19920;-78
2023/01/13 01:21:53;;;;;;;;;;;11.50;95.60;;;10.44;81.36;99405.09;6152395;23;19920;-78
2023/01/13 01:24:22;;;;;;;;;;;11.60;95.60;;;10.43;80.98;99396.31;6152097;23;19924;-78
2023/01/13 01:26:49;;;;;;;;;;;11.50;95.50;;;10.43;80.98;99385.66;6151639;23;19935;-78
2023/01/13 01:29:16;;;;;;;;;;;11.60;95.30;;;10.43;80.54;99395.50;6152500;23;20335;-79
2023/01/13 01:31:43;;;;;;;;;;;11.60;95.00;;;10.42;80.09;99402.69;6150533;23;19920;-79
2023/01/13 01:34:10;;;;;;;;;;;11.50;94.60;;;10.40;79.72;99418.13;6150576;23;19923;-79
2023/01/13 01:36:36;;;;;;;;;;;11.50;94.60;;;10.39;80.31;99434.31;6152175;23;19947;-79
2023/01/13 01:39:04;;;;;;;;;;;11.50;95.00;;;10.32;78.98;99437.94;6152284;23;20365;-79
2023/01/13 01:41:34;;;;;;;;;;;11.50;94.00;;;10.35;79.61;99433.19;6152277;23;20374;-79
2023/01/13 01:44:05;;;;;;;;;;;11.50;94.60;;;10.31;78.93;99436.31;6151206;23;19921;-79
2023/01/13 01:46:35;;;;;;;;;;;11.50;94.00;;;10.34;78.96;99437.69;6151837;23;19920;-79
2023/01/13 01:49:08;;;;;;;;;;;11.50;94.00;;;10.36;78.58;99418.81;6149722;23;20008;-79
2023/01/13 01:51:38;;;;;;;;;;;11.50;93.70;;;10.32;78.06;99427.28;6152007;23;19947;-79
2023/01/13 01:54:07;;;;;;;;;;;11.50;93.50;;;10.35;78.65;99425.22;6152062;23;19920;-79
2023/01/13 01:56:37;;;;;;;;;;;11.50;93.90;;;10.35;78.81;99428.69;6151793;23;19995;-79
2023/01/13 01:59:04;;;;;;;;;;;11.50;93.80;;;10.30;77.33;99433.91;6152307;23;19920;-78
2023/01/13 02:01:32;;;;;;;;;;;11.50;92.80;;;10.27;77.10;99442.34;6152555;23;19927;-78
2023/01/13 02:04:03;;;;;;;;;;;11.40;92.80;;;10.28;77.48;99438.63;6150433;23;19920;-79
2023/01/13 02:06:30;;;;;;;;;;;11.40;92.90;;;10.31;77.56;99440.84;6151449;23;20247;-79
2023/01/13 02:08:59;;;;;;;;;;;11.40;92.90;;;10.31;76.54;99431.00;6152052;23;19931;-79
2023/01/13 02:14:12;;;;;;;;;;;11.50;93.00;;;10.36;77.08;99434.81;6151551;23;19921;-79
2023/01/13 02:16:41;;;;;;;;;;;11.50;92.80;;;10.38;77.35;99432.72;6151603;23;20369;-79
2023/01/13 02:19:20;;;;;;;;;;;11.50;92.70;;;10.36;76.96;99442.81;6151265;23;19927;-78
2023/01/13 02:22:18;;;;;;;;;;;11.50;92.50;;;10.33;76.26;99444.06;6149833;23;20262;-79
2023/01/13 02:25:05;;;;;;;;;;;11.50;92.00;;;10.32;76.46;99445.13;6150608;23;20312;-79
2023/01/13 02:27:56;;;;;;;;;;;11.50;91.80;;;10.34;75.89;99444.88;6151134;23;20003;-79
2023/01/13 02:33:27;;;;;;;;;;;11.50;91.10;;;10.31;75.29;99433.66;6150574;23;19971;-79
2023/01/13 02:36:01;;;;;;;;;;;11.50;91.40;;;10.35;76.08;99438.53;6151765;23;19928;-79
2023/01/13 02:38:33;;;;;;;;;;;11.50;92.00;;;10.38;75.46;99446.03;6151476;23;19927;-79
2023/01/13 02:44:05;;;;;;;;;;;11.50;91.20;;;10.40;75.07;99439.44;6151094;23;19927;-79
2023/01/13 02:44:06;;;;;;;;;;;11.60;91.30;;;10.42;74.89;99441.88;6151567;23;19975;-79
2023/01/13 02:46:36;;;;;;;;;;;11.50;91.20;;;10.42;75.00;99447.19;6151374;23;19923;-79
2023/01/13 02:49:08;;;;;;;;;;;11.60;91.10;;;10.43;74.36;99440.81;6150816;23;19931;-79
2023/01/13 02:51:37;;;;;;;;;;;11.60;90.60;;;10.30;72.74;99442.72;6149628;23;20503;-79
2023/01/13 02:54:08;;;;;;;;;;;11.50;89.40;;;10.32;73.75;99434.47;6151102;23;19921;-79
2023/01/13 02:56:39;;;;;;;;;;;11.50;90.20;;;10.30;73.06;99439.25;6150560;23;19927;-79
2023/01/13 02:59:06;;;;;;;;;;;11.50;89.50;;;10.25;71.93;99429.28;6150902;23;19917;-79
2023/01/13 03:01:34;;;;;;;;;;;11.40;88.40;;;10.21;71.27;99419.28;6151591;23;19920;-79
2023/01/13 03:04:11;;;;;;;;;;;11.40;88.40;;;10.15;71.37;99437.03;6150902;23;19926;-79
2023/01/13 03:06:44;;;;;;;;;;;11.40;88.50;;;10.13;71.36;99432.97;6151274;23;19925;-79
2023/01/13 03:09:17;;;;;;;;;;;11.40;88.10;;;10.12;71.98;99450.81;6151239;23;20007;-79
2023/01/13 03:11:50;;;;;;;;;;;11.40;88.90;;;10.17;71.58;99444.78;6151704;23;19924;-79
2023/01/13 03:14:26;;;;;;;;;;;11.40;88.10;;;10.14;71.55;99435.38;6150968;23;20362;-78
2023/01/13 03:17:05;;;;;;;;;;;11.40;88.30;;;10.16;71.92;99429.84;6150396;23;19926;-78
2023/01/13 03:19:42;;;;;;;;;;;11.40;88.70;;;10.13;70.31;99431.09;6150201;23;19927;-79
2023/01/13 03:22:16;;;;;;;;;;;11.30;87.30;;;10.14;70.64;99422.06;6151258;23;19924;-78
2023/01/13 03:24:47;;;;;;;;;;;11.30;87.80;;;10.18;71.12;99417.88;6150706;23;19920;-79
2023/01/13 03:27:18;;;;;;;;;;;11.50;88.30;;;10.18;70.43;99425.06;6151159;23;19958;-79
2023/01/13 03:29:48;;;;;;;;;;;11.40;87.30;;;10.19;70.22;99419.50;6149611;23;19920;-79
2023/01/13 03:32:21;;;;;;;;;;;11.40;87.30;;;10.21;70.08;99408.63;6148651;23;19920;-79
2023/01/13 03:34:51;;;;;;;;;;;11.40;87.20;;;10.20;69.72;99421.16;6150230;23;19920;-78
2023/01/13 03:37:27;;;;;;;;;;;11.40;86.90;;;10.20;69.62;99426.47;6151126;23;19943;-78
2023/01/13 03:39:59;;;;;;;;;;;11.40;86.90;;;10.19;68.06;99416.84;6150524;23;20007;-78
2023/01/13 03:42:28;;;;;;;;;;;11.30;85.70;;;10.16;68.07;99417.31;6151381;23;19927;-78
2023/01/13 03:44:59;;;;;;;;;;;11.30;85.70;;;10.09;66.39;99410.50;6150768;23;19920;-78
2023/01/13 03:47:31;;;;;;;;;;;11.20;83.90;;;10.04;66.96;99414.66;6150762;23;20251;-78
2023/01/13 03:50:02;;;;;;;;;;;11.20;84.40;;;10.00;67.33;99418.03;6150369;23;19924;-78
2023/01/13 03:52:33;;;;;;;;;;;11.20;85.00;;;9.99;67.71;99416.41;6151631;23;19930;-78
2023/01/13 03:55:03;;;;;;;;;;;11.20;84.80;;;10.00;68.22;99421.53;6150645;23;19920;-78
2023/01/13 03:57:34;;;;;;;;;;;11.40;85.70;;;10.01;68.14;99422.31;6150682;23;19920;-78
2023/01/13 04:00:02;;;;;;;;;;;11.20;85.50;;;10.01;67.62;99422.31;6150879;23;19942;-78
2023/01/13 04:02:47;;;;;;;;;;;11.20;84.80;;;10.02;67.82;99414.09;6151216;23;19921;-78
2023/01/13 04:05:15;;;;;;;;;;;11.20;85.20;;;10.02;67.35;99414.09;6149934;23;19920;-78
2023/01/13 04:07:47;;;;;;;;;;;11.30;84.70;;;10.02;67.13;99408.78;6150862;23;19939;-78
2023/01/13 04:10:18;;;;;;;;;;;11.20;84.50;;;9.99;65.92;99414.56;6150056;23;20350;-78
2023/01/13 04:13:00;;;;;;;;;;;11.20;83.30;;;10.03;66.28;99409.56;6151198;23;19920;-79
2023/01/13 04:15:29;;;;;;;;;;;11.20;83.70;;;9.97;64.87;99411.31;6151128;23;19921;-78
2023/01/13 04:18:14;;;;;;;;;;;11.20;82.30;;;9.96;66.40;99408.91;6149976;23;19987;-79
2023/01/13 04:20:42;;;;;;;;;;;11.10;84.10;;;9.98;66.50;99420.13;6149941;23;19936;-79
2023/01/13 04:23:09;;;;;;;;;;;11.20;84.00;;;9.83;65.14;99409.13;6149753;23;19920;-79
2023/01/13 04:25:36;;;;;;;;;;;11.10;82.50;;;9.90;66.40;99409.81;6151242;23;19917;-79
2023/01/13 04:28:04;;;;;;;;;;;11.10;84.00;;;9.91;65.03;99411.47;6150358;23;19921;-79
2023/01/13 04:30:31;;;;;;;;;;;11.10;82.70;;;9.90;65.63;99415.94;6149214;23;19927;-79
2023/01/13 04:32:58;;;;;;;;;;;11.10;83.10;;;9.94;66.30;99413.63;6151169;23;19921;-79
2023/01/13 04:35:26;;;;;;;;;;;11.20;83.70;;;9.98;65.82;99409.47;6150062;23;19921;-79
2023/01/13 04:37:53;;;;;;;;;;;11.20;83.50;;;10.05;66.00;99399.47;6150095;23;19960;-79
2023/01/13 04:40:20;;;;;;;;;;;11.20;83.50;;;10.04;65.09;99405.88;6150062;23;19931;-79
2023/01/13 04:42:47;;;;;;;;;;;11.20;82.70;;;10.10;65.41;99404.91;6150600;23;19916;-79
2023/01/13 04:45:14;;;;;;;;;;;11.20;83.20;;;10.10;64.25;99407.59;6150435;23;19921;-79
2023/01/13 04:47:41;;;;;;;;;;;11.20;81.90;;;10.15;65.30;99417.53;6150198;23;19944;-79
2023/01/13 04:50:10;;;;;;;;;;;11.30;83.30;;;10.12;64.38;99418.84;6150031;23;19921;-79
2023/01/13 04:52:38;;;;;;;;;;;11.30;82.20;;;10.13;65.78;99414.31;6150425;23;19943;-79
2023/01/13 04:55:07;;;;;;;;;;;11.40;83.40;;;10.07;64.71;99418.72;6150448;23;19920;-79
2023/01/13 04:57:36;;;;;;;;;;;11.30;82.50;;;10.07;65.47;99424.06;6150931;23;19921;-79
2023/01/13 05:00:05;;;;;;;;;;;11.40;83.10;;;10.12;65.29;99416.16;6150137;23;20306;-79
2023/01/13 05:02:32;;;;;;;;;;;11.30;82.90;;;10.10;65.42;99415.56;6150957;23;19917;-79
2023/01/13 05:04:59;;;;;;;;;;;11.40;83.10;;;10.15;66.31;99421.03;6149999;23;19999;-79
2023/01/13 05:07:26;;;;;;;;;;;11.40;83.90;;;10.06;65.50;99423.25;6150273;23;19921;-79
2023/01/13 05:09:54;;;;;;;;;;;11.30;83.10;;;10.00;65.09;99418.03;6150267;23;19921;-79
2023/01/13 05:18:06;;;;;;;;;;;11.20;82.60;;;10.01;66.15;99401.03;6143639;23;19967;-79
2023/01/13 05:20:33;;;;;;;;;;;11.20;83.50;;;10.08;66.59;99396.38;6148233;23;20415;-78
2023/01/13 05:25:47;;;;;;;;;;;11.30;83.50;;;10.11;65.63;99401.22;6150607;23;19970;-78
2023/01/13 05:28:15;;;;;;;;;;;11.30;83.50;;;10.05;64.73;99405.66;6150244;23;20003;-78
2023/01/13 05:30:44;;;;;;;;;;;11.20;82.00;;;9.99;64.28;99417.22;6148982;23;19948;-78
2023/01/13 05:33:14;;;;;;;;;;;11.20;81.80;;;9.89;65.59;99426.84;6148277;23;19948;-78
2023/01/13 05:35:50;;;;;;;;;;;11.10;83.10;;;9.92;65.97;99423.72;6150193;23;19920;-79
2023/01/13 05:38:18;;;;;;;;;;;11.10;83.50;;;9.89;65.98;99419.66;6149525;23;19925;-78
2023/01/13 05:43:33;;;;;;;;;;;11.10;83.50;;;9.90;65.73;99428.44;6150659;23;19921;-78
2023/01/13 05:46:02;;;;;;;;;;;11.10;83.30;;;9.88;64.59;99419.91;6150131;23;19920;-79
2023/01/13 05:48:31;;;;;;;;;;;11.10;82.20;;;9.78;64.79;99421.28;6150214;23;19921;-78
2023/01/13 05:50:58;;;;;;;;;;;11.00;82.30;;;9.78;65.61;99425.81;6150079;23;19924;-78
2023/01/13 05:53:26;;;;;;;;;;;11.00;82.90;;;9.66;64.91;99412.50;6149830;23;19920;-79
2023/01/13 05:55:54;;;;;;;;;;;11.00;82.20;;;9.67;65.63;99411.47;6150369;23;19917;-78
2023/01/13 05:58:23;;;;;;;;;;;10.90;83.00;;;9.71;65.43;99422.44;6151504;23;19928;-79
2023/01/13 06:00:51;;;;;;;;;;;10.90;82.90;;;9.69;65.70;99420.00;6149684;23;19926;-78
2023/01/13 06:03:19;;;;;;;;;;;10.90;83.00;;;9.67;65.93;99414.13;6149443;23;19925;-79
2023/01/13 06:05:47;;;;;;;;;;;10.90;83.30;;;9.60;65.95;99418.72;6151212;23;19920;-78
2023/01/13 06:08:14;;;;;;;;;;;10.90;83.40;;;9.48;66.12;99426.72;6152056;23;19920;-78
2023/01/13 06:10:41;;;;;;;;;;;10.80;83.30;;;9.49;66.08;99414.22;6152019;23;19920;-79
2023/01/13 06:13:09;;;;;;;;;;;10.80;83.10;;;9.47;66.33;99418.97;6152608;23;19927;-78
2023/01/13 06:15:36;;;;;;;;;;;10.70;83.70;;;9.53;65.91;99423.38;6152490;23;19927;-79
2023/01/13 06:18:04;;;;;;;;;;;10.70;83.50;;;9.60;66.37;99426.72;6150725;23;19923;-78
2023/01/13 06:20:31;;;;;;;;;;;10.80;83.80;;;9.56;66.34;99425.53;6151403;23;19927;-78
2023/01/13 06:22:58;;;;;;;;;;;10.70;83.80;;;9.44;65.47;99420.22;6151843;23;19924;-78
2023/01/13 06:25:49;;;;;;;;;;;10.70;83.00;;;9.44;66.29;99427.41;6152128;23;19921;-78
2023/01/13 06:28:17;;;;;;;;;;;10.60;84.00;;;9.35;66.13;99420.78;6137179;23;19920;-78
2023/01/13 06:30:51;;;;;;;;;;;10.60;83.50;;;9.37;66.51;99427.53;6149606;23;19920;-78
2023/01/13 06:33:20;;;;;;;;;;;10.60;83.90;;;9.43;66.32;99431.91;6151689;23;20307;-78
2023/01/13 06:35:51;;;;;;;;;;;10.60;83.70;;;9.41;65.94;99427.84;6151302;23;19995;-78
2023/01/13 06:38:20;;;;;;;;;;;10.60;83.50;;;9.40;65.00;99428.88;6151730;23;20343;-79
2023/01/13 06:40:47;;;;;;;;;;;10.50;82.60;;;9.39;65.88;99430.75;6151593;23;19920;-77
2023/01/13 06:43:13;;;;;;;;;;;10.50;83.60;;;9.42;65.56;99430.31;6150071;23;19999;-87
2023/01/13 06:45:43;;;;;;;;;;;10.50;83.00;;;9.35;65.80;99437.56;6150544;23;19920;-85
2023/01/13 06:48:10;;;;;;;;;;;10.60;83.50;;;9.37;65.85;99442.66;6151355;23;19921;-85
2023/01/13 06:50:46;;;;;;;;;;;10.60;83.50;;;9.33;65.77;99429.00;6148431;23;20375;-86
2023/01/13 06:53:13;;;;;;;;;;;10.60;83.30;;;9.35;65.38;99442.06;6150860;23;19917;-86
2023/01/13 06:55:41;;;;;;;;;;;10.50;82.90;;;9.29;64.60;99438.47;6151864;23;19935;-83
2023/01/13 06:58:08;;;;;;;;;;;10.50;82.10;;;9.21;64.71;99442.25;6151463;23;19995;-84
2023/01/13 07:00:36;;;;;;;;;;;10.40;82.20;;;9.27;64.82;99443.19;6151375;23;20336;-85
2023/01/13 07:03:10;;;;;;;;;;;10.40;82.30;;;9.26;64.53;99442.38;6149826;23;19920;-84
2023/01/13 07:05:51;;;;;;;;;;;10.40;82.30;;;9.23;64.55;99450.03;6147849;23;19969;-84
2023/01/13 07:08:18;;;;;;;;;;;10.40;82.20;;;9.20;64.52;99443.31;6150378;23;19999;-83
2023/01/13 07:10:45;;;;;;;;;;;10.40;82.10;;;9.23;65.30;99450.84;6151355;23;19951;-82
2023/01/13 07:15:57;;;;;;;;;;;10.50;83.30;;;9.28;64.31;99453.63;6150594;23;19920;-82
2023/01/13 07:18:27;;;;;;;;;;;10.50;82.10;;;9.31;64.80;99455.00;6148524;23;20001;-82
2023/01/13 07:20:55;;;;;;;;;;;10.50;82.60;;;9.24;64.32;99455.13;6149522;23;19936;-82
2023/01/13 07:23:22;;;;;;;;;;;10.40;82.10;;;9.21;64.31;99460.88;6148682;23;20317;-87
2023/01/13 07:25:50;;;;;;;;;;;10.40;81.90;;;9.22;64.81;99470.50;6145565;23;19920;-82
2023/01/13 07:28:17;;;;;;;;;;;10.40;82.30;;;9.21;65.48;99460.88;6149420;23;20333;-84
2023/01/13 07:30:44;;;;;;;;;;;10.40;83.00;;;9.32;65.53;99466.47;6149337;23;19959;-84
2023/01/13 07:33:11;;;;;;;;;;;10.50;83.00;;;9.35;64.72;99460.69;6150483;23;19920;-85
2023/01/13 07:35:39;;;;;;;;;;;10.50;82.20;;;9.35;65.02;99463.34;6148635;23;19927;-85
2023/01/13 07:38:07;;;;;;;;;;;10.50;82.70;;;9.35;65.09;99466.81;6150094;23;19927;-85
2023/01/13 07:40:34;;;;;;;;;;;10.50;82.50;;;9.41;65.25;99476.56;6149134;23;20342;-84
2023/01/13 07:45:45;;;;;;;;;;;10.60;82.80;;;9.40;64.94;99487.44;6149919;23;20406;-83
2023/01/13 07:48:12;;;;;;;;;;;10.60;82.50;;;9.43;65.15;99490.47;6150051;23;20026;-82
2023/01/13 07:50:41;;;;;;;;;;;10.70;82.70;;;9.42;64.54;99478.19;6148315;23;19947;-86
2023/01/13 07:53:07;;;;;;;;;;;10.70;82.00;;;9.42;63.82;99488.00;6149411;23;20049;-85
2023/01/13 07:55:34;;;;;;;;;;;10.60;81.40;;;9.29;64.20;99489.84;6146725;23;19923;-85
2023/01/13 07:58:02;;;;;;;;;;;10.50;82.00;;;9.33;65.06;99490.19;6147732;23;19920;-86
2023/01/13 08:00:29;;;;;;;;;;;10.60;82.60;;;9.33;64.16;99489.41;6147486;23;20259;-86
2023/01/13 08:02:56;;;;;;;;;;;10.60;81.60;;;9.34;64.21;99496.34;6149365;23;19920;-86
2023/01/13 08:05:23;;;;;;;;;;;10.50;81.60;;;9.33;64.65;99487.53;6148646;23;20341;-86
2023/01/13 08:07:51;;;;;;;;;;;10.50;82.00;;;9.30;64.30;99495.97;6147174;23;19983;-86
2023/01/13 08:10:19;;;;;;;;;;;10.50;81.90;;;9.31;64.29;99497.59;6148373;23;20001;-85
2023/01/13 08:15:31;;;;;;;;;;;10.50;81.90;;;9.27;63.34;99507.88;6149085;23;19925;-86
2023/01/13 08:17:58;;;;;;;;;;;10.50;81.00;;;9.20;64.08;99511.66;6146959;23;19921;-86
2023/01/13 08:20:26;;;;;;;;;;;10.50;81.80;;;9.17;63.97;99518.22;6150131;23;19920;-84
2023/01/13 08:22:57;;;;;;;;;;;10.40;81.80;;;9.19;63.94;99510.84;6148577;23;19956;-86
2023/01/13 08:25:25;;;;;;;;;;;10.40;81.60;;;9.10;64.33;99525.50;6149995;23;19917;-86
2023/01/13 08:27:52;;;;;;;;;;;10.40;81.80;;;9.14;64.97;99524.03;6146099;23;19967;-85
2023/01/13 08:30:19;;;;;;;;;;;10.40;82.50;;;9.13;64.65;99527.72;6147485;23;20359;-86
2023/01/13 08:32:47;;;;;;;;;;;10.40;81.80;;;9.14;64.62;99526.69;6150597;23;20003;-87
2023/01/13 08:35:16;;;;;;;;;;;10.40;82.20;;;9.22;64.96;99526.38;6148693;23;20312;-86
2023/01/13 08:37:43;;;;;;;;;;;10.40;82.60;;;9.25;64.14;99533.09;6148687;23;19999;-84
2023/01/13 08:40:13;;;;;;;;;;;10.40;81.80;;;9.26;63.86;99527.53;6148959;23;19921;-84
2023/01/13 08:42:40;;;;;;;;;;;10.40;81.50;;;9.29;63.74;99531.59;6149117;23;20350;-85
2023/01/13 08:45:09;;;;;;;;;;;10.40;81.30;;;9.31;63.42;99531.38;6149015;23;19959;-85
2023/01/13 08:47:37;;;;;;;;;;;10.40;81.20;;;9.34;64.00;99539.72;6147854;23;20339;-84
2023/01/13 08:50:05;;;;;;;;;;;10.50;82.00;;;9.38;64.11;99542.75;6148471;23;19920;-85
2023/01/13 08:52:32;;;;;;;;;;;10.50;81.80;;;9.36;64.11;99544.81;6149483;23;20002;-85
2023/01/13 08:54:59;;;;;;;;;;;10.50;81.80;;;9.36;64.55;99548.28;6151402;23;19979;-83
2023/01/13 08:57:27;;;;;;;;;;;10.50;82.20;;;9.35;64.82;99551.97;6150855;23;19968;-86
2023/01/13 08:59:54;;;;;;;;;;;10.50;82.40;;;9.38;64.79;99561.38;6150311;23;19925;-85
2023/01/13 09:02:23;;;;;;;;;;;10.50;82.20;;;9.38;64.32;99562.19;6149313;23;19920;-86
2023/01/13 09:04:50;;;;;;;;;;;10.60;82.00;;;9.28;64.92;99570.69;6147678;23;19976;-86
2023/01/13 09:07:18;;;;;;;;;;;10.50;82.20;;;9.34;64.31;99566.31;6148675;23;20004;-86
2023/01/13 09:09:45;;;;;;;;;;;10.50;81.80;;;9.34;64.53;99557.53;6148781;23;19971;-86
2023/01/13 09:14:59;;;;;;;;;;;10.50;82.20;;;9.29;64.67;99553.69;6150740;23;19916;-86
2023/01/13 09:17:27;;;;;;;;;;;10.40;82.30;;;9.27;65.17;99557.59;6148978;23;19920;-86
2023/01/13 09:19:54;;;;;;;;;;;10.50;82.70;;;9.27;64.96;99549.63;6149154;23;19927;-87
2023/01/13 09:22:25;;;;;;;;;;;10.50;82.60;;;9.26;65.29;99551.47;6147536;23;20019;-86
2023/01/13 09:24:53;;;;;;;;;;;10.50;82.80;;;9.22;65.11;99546.81;6147707;23;20366;-87
2023/01/13 09:27:20;;;;;;;;;;;10.40;82.30;;;9.20;64.96;99554.22;6146961;23;20011;-86
2023/01/13 09:29:47;;;;;;;;;;;10.40;82.50;;;9.21;65.23;99559.31;6150456;23;19928;-86
2023/01/13 09:32:16;;;;;;;;;;;10.40;82.50;;;9.23;65.41;99559.91;6150435;23;20011;-85
2023/01/13 09:35:00;;;;;;;;;;;10.40;82.80;;;9.21;64.94;99559.31;6148974;23;19927;-86
2023/01/13 09:37:28;;;;;;;;;;;10.40;82.40;;;9.22;65.21;99552.16;6150051;23;19920;-86
2023/01/13 09:39:55;;;;;;;;;;;10.40;82.70;;;9.17;65.26;99560.78;6149900;23;19920;-86
2023/01/13 09:45:16;;;;;;;;;;;10.40;82.70;;;9.20;65.86;99563.03;6151148;23;19920;-86
2023/01/13 09:47:50;;;;;;;;;;;10.40;83.30;;;9.26;65.89;99551.47;6148705;23;20506;-84
2023/01/13 09:50:24;;;;;;;;;;;10.50;83.50;;;9.21;65.46;99559.31;6149680;23;19928;-84
2023/01/13 09:52:52;;;;;;;;;;;10.50;82.90;;;9.22;65.44;99563.63;6151755;23;19995;-84
2023/01/13 09:55:24;;;;;;;;;;;10.40;82.90;;;9.15;65.63;99556.75;6150886;23;20355;-84
2023/01/13 09:57:51;;;;;;;;;;;10.40;82.70;;;9.12;65.59;99570.50;6149538;23;19999;-84
2023/01/13 10:00:21;;;;;;;;;;;10.40;82.90;;;9.18;65.76;99566.97;6149484;23;19927;-84
2023/01/13 10:03:15;;;;;;;;;;;10.40;83.10;;;9.10;65.97;99576.03;6149829;23;19948;-84
2023/01/13 10:05:44;;;;;;;;;;;10.40;83.10;;;9.11;66.33;99582.16;6150025;23;20415;-84
2023/01/13 10:08:12;;;;;;;;;;;10.40;83.50;;;9.20;65.96;99570.19;6151727;23;20559;-84
2023/01/13 10:10:42;;;;;;;;;;;10.40;82.90;;;9.22;64.93;99568.09;6150561;23;20399;-84
2023/01/13 10:13:18;;;;;;;;;;;10.40;82.30;;;9.23;65.41;99588.38;6152177;23;19933;-84
2023/01/13 10:16:06;;;;;;;;;;;10.40;82.80;;;9.27;64.85;99584.22;6149855;23;19924;-85
2023/01/13 10:18:44;;;;;;;;;;;10.40;82.70;;;9.29;64.58;99580.31;6149569;23;19944;-84
2023/01/13 10:21:23;;;;;;;;;;;10.40;82.10;;;9.33;63.86;99585.19;6151906;23;19917;-84
2023/01/13 10:23:59;;;;;;;;;;;10.50;81.80;;;9.32;63.88;99578.22;6151783;23;19955;-84
2023/01/13 10:26:38;;;;;;;;;;;10.40;81.80;;;9.31;64.35;99597.88;6151273;23;20323;-84
2023/01/13 10:29:21;;;;;;;;;;;10.40;82.00;;;9.28;64.30;99594.66;6152334;23;20328;-84
2023/01/13 10:31:48;;;;;;;;;;;10.40;82.10;;;9.28;64.20;99599.97;6151770;23;19920;-84
2023/01/13 10:34:16;;;;;;;;;;;10.40;81.80;;;9.22;64.38;99589.41;6150925;23;19926;-83
2023/01/13 10:36:56;;;;;;;;;;;10.40;81.90;;;9.26;64.23;99579.94;6151061;23;20339;-84
2023/01/13 10:39:23;;;;;;;;;;;10.40;81.80;;;9.31;64.48;99577.41;6147700;23;19921;-84
2023/01/13 10:42:02;;;;;;;;;;;10.40;82.10;;;9.32;64.51;99584.38;6151412;23;20003;-83
2023/01/13 10:44:29;;;;;;;;;;;10.50;82.30;;;9.33;63.77;99574.53;6150021;23;20420;-83
2023/01/13 10:46:59;;;;;;;;;;;10.50;81.50;;;9.34;63.84;99568.19;6149472;23;19971;-83
2023/01/13 10:49:35;;;;;;;;;;;10.50;81.20;;;9.40;64.22;99585.91;6150145;23;20340;-84
2023/01/13 10:52:03;;;;;;;;;;;10.50;82.20;;;9.45;64.47;99580.72;6149254;23;19964;-83
2023/01/13 10:54:31;;;;;;;;;;;10.60;82.00;;;9.48;64.17;99580.28;6149226;23;19954;-83
2023/01/13 10:57:13;;;;;;;;;;;10.60;81.80;;;9.52;63.76;99581.44;6147543;23;20299;-84
2023/01/13 10:59:40;;;;;;;;;;;10.60;81.40;;;9.58;63.44;99588.53;6147938;23;19920;-84
2023/01/13 11:02:19;;;;;;;;;;;10.70;81.20;;;9.61;63.59;99581.91;6147479;23;19927;-85
2023/01/13 11:05:01;;;;;;;;;;;10.70;81.20;;;9.60;63.59;99586.44;6147796;23;19926;-83
2023/01/13 11:07:57;;;;;;;;;;;10.70;81.40;;;9.59;63.32;99584.81;6145965;23;19920;-84
2023/01/13 11:10:30;;;;;;;;;;;10.70;81.10;;;9.62;63.67;99583.56;6150804;23;19931;-84
2023/01/13 11:13:02;;;;;;;;;;;10.80;81.20;;;9.61;62.81;99588.03;6150017;23;19916;-79
2023/01/13 11:15:38;;;;;;;;;;;10.80;80.30;;;9.60;63.08;99582.97;6148055;23;19948;-80
2023/01/13 11:18:13;;;;;;;;;;;10.80;80.70;;;9.59;63.06;99592.81;6147985;23;19999;-79
2023/01/13 11:20:44;;;;;;;;;;;10.70;80.50;;;9.54;63.81;99598.81;6148037;23;19987;-76
2023/01/13 11:23:15;;;;;;;;;;;10.70;81.40;;;9.40;66.43;99613.31;6145776;23;19955;-76
2023/01/13 11:25:46;;;;;;;;;;;10.60;83.50;;;9.25;68.21;99610.25;6150500;23;20419;-76
2023/01/13 11:28:23;;;;;;;;;;;10.50;85.00;;;9.29;68.95;99611.41;6149851;23;19920;-76
2023/01/13 11:30:54;;;;;;;;;;;10.50;86.10;;;9.39;69.68;99605.56;6150216;23;19920;-75
2023/01/13 11:33:33;;;;;;;;;;;10.50;86.70;;;9.43;70.02;99604.09;6150195;23;20019;-76
2023/01/13 11:36:11;;;;;;;;;;;10.60;86.70;;;9.46;70.35;99614.25;6150640;23;20004;-76
2023/01/13 11:38:44;;;;;;;;;;;10.60;87.10;;;9.41;69.77;99616.78;6149082;23;19958;-76
2023/01/13 11:41:20;;;;;;;;;;;10.50;86.70;;;9.36;70.12;99614.00;6148612;23;20011;-76
2023/01/13 11:43:51;;;;;;;;;;;10.40;87.00;;;9.31;70.12;99624.50;6147376;23;19921;-75
2023/01/13 11:46:19;;;;;;;;;;;10.40;87.20;;;9.33;70.50;99617.94;6148501;23;20023;-75
2023/01/13 11:48:46;;;;;;;;;;;10.40;87.30;;;9.29;70.25;99614.91;6149770;23;19983;-75
2023/01/13 11:51:23;;;;;;;;;;;10.40;87.10;;;9.24;70.26;99605.97;6149530;23;19928;-75
2023/01/13 11:54:02;;;;;;;;;;;10.40;87.20;;;9.28;70.22;99613.28;6149833;23;19927;-75
2023/01/13 11:56:52;;;;;;;;;;;10.40;87.20;;;9.28;69.95;99620.44;6149031;23;19971;-75
2023/01/13 11:59:39;;;;;;;;;;;10.40;86.70;;;9.28;68.96;99612.47;6151155;23;19959;-75
2023/01/13 12:02:19;;;;;;;;;;;10.40;86.10;;;9.28;69.80;99609.81;6148009;23;20431;-76
2023/01/13 12:04:57;;;;;;;;;;;10.40;87.10;;;9.25;69.82;99613.72;6148869;23;20023;-76
2023/01/13 12:07:36;;;;;;;;;;;10.60;87.00;;;9.22;69.43;99622.16;6146627;23;20338;-76
2023/01/13 12:10:06;;;;;;;;;;;10.40;86.50;;;9.22;70.50;99611.50;6150801;23;19916;-76